الصفحة الرئيسية
METAR-TAF:

METAR-TAF

مطار :

كلوفيس, نيومكسيكو, الولايات المتحدة

دائرة عرض: 34-26N, خط طول: 103-05W, ارتفاع: 1284 متر

مراقبة الطقس الحالي

تاريخ ووقت الإصدار 56 دقيقة قبل الساعة 08:56UTC
ريح 7 عقدة من الشرق
درجة الحرارة 1°درجة مئوية
الرطوبة 59%
ضغط 1012 hPa
الرؤية: 16.1 كم
غيوم مفككة على ارتفاع 9500 قدم

METAR: KCVN 220856Z AUTO 10007KT 10SM BKN095 01/M06 A2988 RMK AO2 SLP111 60000 T00061056 53003 FZRANO

زمن: 02:52 (09:52 UTC)


TAF: مفقودة

أرصاد الطقس والتوقعات من أكثر من 4000 مطار (تقارير الطقس للمطار METAR والتنبؤ بالطقس بالمطارTAF).

المحطات المتاحة هي النقط الصفراء والحمراء على الخريطة.

حرك المؤشر فوق النقطة لمعرفة اسم المحطة.

ثم انقر لمعرفة أرصاد وتوقعات الطقس.

لتغيير الخارطة: اضغط على الأزرار الخضراء مع رمز الصليب الأسود للتكبير. على الزر الأخضر مع شرطة للتصغير، أو على الأسهم الخضراء للخرائط المجاورة.


METAR-TAF: